METAR Data
IDs: Format: Raw Decoded Include TAF

Data at: 1453 UTC 25 Jan 2020

METAR for:KHWY (Warrenton/Fauquier A, VA, US)
Text:KHWY 251435Z AUTO 00000KT 10SM OVC004 09/08 A2986 RMK AO2 T00900075
Temperature: 9.0°C ( 48°F)
Dewpoint: 7.5°C ( 46°F) [RH = 90%]
Pressure (altimeter):29.86 inches Hg (1011.3 mb)
Winds:calm
Visibility:10 or more sm (16+ km)
Ceiling:400 feet AGL
Clouds: overcast cloud deck at 400 feet AGL
QC Flag:automated observation with no human augmentation